Guatemala City, Guatemala

9:58 PM CST on November 22, 2014 (GMT -0600)
Zona 12 | Change Station
CLOSE
Current Station
Personal Weather Station
Location: Guatemala, Guatemala
Elevation: 4810 ft
Nearby Weather Stations

Elev 4810 ft 14.58 °N, 90.56 °W | Updated 1 minute ago

Mostly Cloudy
Mostly Cloudy
61.2 °F
Feels Like 61.2 °F
N
4.0
Wind Variable Wind from North
Gusts 5.0 mph

Today
High -- | Low -- °F
--% Chance of Precip.
Yesterday
High -- | Low -- °F
Precip. -- in
6:06 AM 5:29 PM
New Moon, 0% visible
Pressure 30.30 in
Visibility 6.2 miles
Clouds Mostly Cloudy 1200 ft
Dew Point 58 °F
Humidity 88%
Rainfall 0.04 in
Snow Depth Not available.
UV 0 out of 12
Pollen Not available.
Air Quality Not available.
Flu Activity Not available.
METAR MGGT 230400Z 36010KT 9999 BKN012 17/16 Q1026 A3030

More Conditions Fewer Conditions

Pressure 30.30 in
Visibility 6.2 miles
Clouds Mostly Cloudy 1200 ft
Dew Point 58 °F
Humidity 88%
Rainfall 0.04 in
Snow Depth Not available.
UV 0 out of 12
Pollen Not available.
Air Quality Not available.
Flu Activity Not available.
METAR MGGT 230400Z 36010KT 9999 BKN012 17/16 Q1026 A3030

More Conditions Fewer Conditions

10-Day Weather Forecast

Almanac

Astronomy

Nov. 22, 2014 Rise Set
Actual Time
Civil Twilight
Nautical Twilight
Astronomical Twilight
Moon
Length of Visible Light
Length of Day
Tomorrow will be .
, % of the Moon is Illuminated

Today's Extremes

Country Highs Country Lows

Community

WunderPhotos

Upload Photos

1,772,990 photos uploaded!

WunderBlogs® & News

Nearby

Air Quality

  Air Quality AQ Index Pollutant
Not available.

Snow Depth

Station Depth Elevation

Earthquake Activity

City Distance Mag. Time & Date
Minimum magnitude displayed is 2.5.

Coastal Water Temperatures

Place Temperature

Nearby Weather Stations